Time;durP1;ratioP1;P1;durP2;ratioP2;P2;SDS_P1;SDS_P2;PMS_P1;PMS_P2;Temp;Humidity;BMP_temperature;BMP_pressure;BME280_temperature;BME280_humidity;BME280_pressure;Samples;Min_cycle;Max_cycle;Signal;HPM_P1;HPM_P2
2024/01/28 00:00:15;;;;;;;1.30;1.00;;;21.20;54.10;;;;;;5091852;28;20420;-70
2024/01/28 00:02:41;;;;;;;2.70;1.00;;;21.20;54.10;;;;;;5091909;28;20403;-71
2024/01/28 00:05:06;;;;;;;1.40;1.10;;;21.20;54.10;;;;;;5092033;28;20438;-71
2024/01/28 00:07:32;;;;;;;1.73;1.30;;;21.20;54.10;;;;;;5091811;28;20181;-70
2024/01/28 00:09:57;;;;;;;1.40;1.00;;;21.20;54.10;;;;;;5091660;28;20198;-71
2024/01/28 00:12:23;;;;;;;1.60;1.10;;;21.20;54.10;;;;;;5091779;28;20174;-70
2024/01/28 00:14:49;;;;;;;1.37;1.10;;;21.20;54.10;;;;;;5091489;28;20227;-70
2024/01/28 00:17:14;;;;;;;1.40;1.10;;;21.20;54.10;;;;;;5091507;28;20197;-70
2024/01/28 00:19:40;;;;;;;1.67;1.10;;;21.20;54.10;;;;;;5073414;28;20225;-71
2024/01/28 00:22:06;;;;;;;1.60;1.40;;;21.20;54.10;;;;;;5091482;28;20184;-70
2024/01/28 00:24:31;;;;;;;2.83;1.10;;;21.20;54.10;;;;;;5091686;28;20519;-70
2024/01/28 00:26:57;;;;;;;1.40;1.07;;;21.20;54.20;;;;;;5091353;28;20438;-71
2024/01/28 00:29:28;;;;;;;1.83;1.10;;;21.20;54.10;;;;;;5091224;28;20177;-70
2024/01/28 00:31:55;;;;;;;1.03;0.90;;;21.20;54.10;;;;;;5091328;28;20168;-69
2024/01/28 00:34:21;;;;;;;1.37;1.10;;;21.20;54.10;;;;;;5091169;28;20455;-71
2024/01/28 00:36:47;;;;;;;2.40;1.10;;;21.20;54.20;;;;;;5091272;28;20964;-71
2024/01/28 00:39:13;;;;;;;1.00;0.80;;;21.20;54.20;;;;;;5091382;28;20227;-70
2024/01/28 00:41:39;;;;;;;1.60;1.10;;;21.20;54.20;;;;;;5091048;28;20619;-70
2024/01/28 00:44:05;;;;;;;1.20;1.00;;;21.20;54.10;;;;;;5091077;28;20416;-70
2024/01/28 00:46:34;;;;;;;1.83;1.20;;;21.10;54.10;;;;;;5091051;28;20971;-70
2024/01/28 00:49:01;;;;;;;1.20;1.00;;;21.10;54.00;;;;;;5090999;28;20201;-70
2024/01/28 00:51:27;;;;;;;1.30;0.93;;;21.10;54.00;;;;;;5090881;28;20458;-71
2024/01/28 00:53:52;;;;;;;2.37;1.00;;;21.10;54.10;;;;;;5072790;28;21066;-71
2024/01/28 00:56:18;;;;;;;1.30;1.00;;;21.10;54.10;;;;;;5090910;28;20188;-70
2024/01/28 00:58:44;;;;;;;1.40;1.10;;;21.10;54.10;;;;;;5090930;28;20178;-71
2024/01/28 01:01:10;;;;;;;1.53;1.10;;;21.10;54.10;;;;;;5090676;28;20272;-69
2024/01/28 01:03:36;;;;;;;1.67;1.10;;;21.10;54.10;;;;;;5091036;28;20499;-70
2024/01/28 01:06:01;;;;;;;1.53;1.10;;;21.10;54.00;;;;;;5090680;28;20174;-71
2024/01/28 01:08:27;;;;;;;1.50;1.10;;;21.10;54.00;;;;;;5090663;28;20173;-71
2024/01/28 01:10:53;;;;;;;1.40;1.00;;;21.10;54.10;;;;;;5089712;28;20189;-70
2024/01/28 01:13:19;;;;;;;1.10;1.00;;;21.10;54.10;;;;;;5055625;28;20188;-71
2024/01/28 01:15:45;;;;;;;1.40;1.13;;;21.10;54.10;;;;;;5090369;28;20415;-71
2024/01/28 01:18:11;;;;;;;1.43;1.17;;;21.10;54.10;;;;;;5090518;28;20909;-70
2024/01/28 01:20:37;;;;;;;1.70;1.37;;;21.10;54.10;;;;;;5090425;28;20193;-71
2024/01/28 01:23:03;;;;;;;1.47;1.10;;;21.10;54.10;;;;;;5090403;28;20408;-70
2024/01/28 01:25:28;;;;;;;1.30;1.00;;;21.10;54.10;;;;;;5090433;28;20493;-71
2024/01/28 01:27:54;;;;;;;1.50;1.10;;;21.10;54.10;;;;;;5090359;28;20550;-71
2024/01/28 01:30:20;;;;;;;1.53;1.13;;;21.10;54.10;;;;;;5090279;28;20197;-70
2024/01/28 01:32:47;;;;;;;1.30;1.03;;;21.10;54.10;;;;;;5090269;28;20435;-71
2024/01/28 01:35:14;;;;;;;2.17;1.40;;;21.10;54.10;;;;;;5071974;28;20201;-70
2024/01/28 01:37:40;;;;;;;1.73;1.10;;;21.10;54.10;;;;;;5090242;28;20914;-69
2024/01/28 01:40:06;;;;;;;2.23;1.73;;;21.10;54.10;;;;;;5090086;28;20976;-70
2024/01/28 01:42:32;;;;;;;1.40;1.20;;;21.10;54.10;;;;;;5090157;28;20408;-70
2024/01/28 01:44:57;;;;;;;2.03;1.07;;;21.10;54.10;;;;;;5090058;28;20770;-72
2024/01/28 01:47:24;;;;;;;1.47;1.10;;;21.10;54.10;;;;;;5090147;28;20203;-71
2024/01/28 01:49:50;;;;;;;9.33;1.37;;;21.10;54.10;;;;;;5090040;28;21039;-71
2024/01/28 01:52:16;;;;;;;1.47;0.97;;;21.10;54.10;;;;;;5090082;28;20474;-71
2024/01/28 01:54:49;;;;;;;2.27;1.40;;;21.10;54.10;;;;;;5090073;28;20459;-71
2024/01/28 01:57:16;;;;;;;1.90;1.70;;;21.10;54.10;;;;;;5089796;28;20486;-71
2024/01/28 01:59:42;;;;;;;1.23;1.10;;;21.10;54.10;;;;;;5090165;28;20438;-70
2024/01/28 02:02:10;;;;;;;1.40;1.00;;;21.10;54.10;;;;;;5089989;28;20404;-72
2024/01/28 02:04:37;;;;;;;1.40;1.20;;;21.10;54.10;;;;;;5089944;28;20514;-71
2024/01/28 02:07:03;;;;;;;1.40;1.10;;;21.10;54.10;;;;;;5089894;28;20400;-71
2024/01/28 02:09:29;;;;;;;2.00;1.10;;;21.10;54.10;;;;;;5089773;28;20476;-72
2024/01/28 02:11:54;;;;;;;1.43;1.00;;;21.10;54.10;;;;;;5090077;28;20186;-71
2024/01/28 02:14:24;;;;;;;1.60;1.30;;;21.10;54.10;;;;;;5089552;28;20736;-72
2024/01/28 02:16:50;;;;;;;1.50;1.20;;;21.10;54.10;;;;;;5089711;28;20224;-70
2024/01/28 02:19:17;;;;;;;1.87;1.23;;;21.10;54.10;;;;;;5089750;28;20431;-71
2024/01/28 02:21:43;;;;;;;1.50;1.33;;;21.10;54.10;;;;;;5091331;28;20172;-71
2024/01/28 02:24:08;;;;;;;1.77;1.10;;;21.10;54.10;;;;;;5093759;28;20408;-71
2024/01/28 02:26:34;;;;;;;1.70;1.10;;;21.10;54.10;;;;;;5093619;28;20423;-71
2024/01/28 02:29:00;;;;;;;1.83;1.13;;;21.10;54.10;;;;;;5093592;28;20174;-72
2024/01/28 02:31:26;;;;;;;1.57;1.40;;;21.10;54.10;;;;;;5093670;28;20205;-70
2024/01/28 02:33:51;;;;;;;1.70;1.20;;;21.10;54.10;;;;;;5093639;28;20270;-72
2024/01/28 02:36:17;;;;;;;1.20;1.00;;;21.10;54.10;;;;;;5093444;28;20643;-72
2024/01/28 02:38:42;;;;;;;1.20;1.10;;;21.10;54.10;;;;;;5093449;28;20174;-71
2024/01/28 02:41:08;;;;;;;1.50;1.10;;;21.10;54.10;;;;;;5093358;28;20628;-71
2024/01/28 02:43:34;;;;;;;2.10;1.40;;;21.10;54.10;;;;;;5093299;28;20182;-71
2024/01/28 02:46:00;;;;;;;1.70;1.07;;;21.10;54.10;;;;;;5093251;28;20232;-71
2024/01/28 02:48:26;;;;;;;1.63;1.27;;;21.10;54.10;;;;;;5093511;28;20446;-71
2024/01/28 02:50:51;;;;;;;1.70;1.37;;;21.10;54.10;;;;;;5093093;28;20189;-71
2024/01/28 02:53:17;;;;;;;1.87;1.40;;;21.10;54.10;;;;;;5093072;28;20550;-71
2024/01/28 02:55:42;;;;;;;2.40;1.57;;;21.10;54.10;;;;;;5093108;28;20177;-71
2024/01/28 02:58:08;;;;;;;1.50;1.20;;;21.10;54.10;;;;;;5093003;28;20223;-71
2024/01/28 03:00:35;;;;;;;1.63;1.10;;;21.10;54.10;;;;;;5092864;28;20189;-71
2024/01/28 03:03:03;;;;;;;1.53;1.30;;;21.10;54.10;;;;;;5092896;28;20197;-71
2024/01/28 03:05:29;;;;;;;2.07;1.73;;;21.10;54.10;;;;;;5092815;28;20501;-71
2024/01/28 03:07:55;;;;;;;1.87;1.20;;;21.10;54.10;;;;;;5092850;28;20415;-70
2024/01/28 03:10:21;;;;;;;2.50;1.40;;;21.10;54.10;;;;;;5074462;28;20454;-71
2024/01/28 03:12:49;;;;;;;1.67;1.50;;;21.10;54.20;;;;;;5074593;28;20644;-71
2024/01/28 03:15:16;;;;;;;1.40;1.20;;;21.10;54.10;;;;;;5092596;28;20205;-70
2024/01/28 03:17:42;;;;;;;2.13;1.13;;;21.10;54.10;;;;;;5092563;28;20526;-71
2024/01/28 03:20:08;;;;;;;1.70;1.50;;;21.10;54.10;;;;;;5092530;28;20519;-72
2024/01/28 03:22:34;;;;;;;2.47;1.23;;;21.00;54.10;;;;;;5092533;28;20699;-71
2024/01/28 03:25:00;;;;;;;2.03;1.60;;;21.00;54.10;;;;;;5092500;28;20407;-70
2024/01/28 03:27:25;;;;;;;1.20;1.00;;;21.10;54.20;;;;;;5073758;28;20712;-71
2024/01/28 03:29:51;;;;;;;1.70;1.30;;;21.00;54.10;;;;;;5092318;28;20193;-71
2024/01/28 03:32:17;;;;;;;2.03;1.30;;;21.10;54.20;;;;;;5092035;28;20180;-71
2024/01/28 03:34:42;;;;;;;1.77;1.33;;;21.00;54.10;;;;;;5091584;28;20212;-71
2024/01/28 03:37:08;;;;;;;1.63;1.13;;;21.00;54.10;;;;;;5092236;28;20170;-72
2024/01/28 03:39:33;;;;;;;1.27;1.10;;;21.00;54.10;;;;;;5092206;28;20315;-72
2024/01/28 03:41:59;;;;;;;1.80;1.13;;;21.00;54.20;;;;;;5092380;28;20170;-72
2024/01/28 03:44:25;;;;;;;1.50;1.40;;;21.00;54.10;;;;;;5092131;28;20197;-70
2024/01/28 03:46:51;;;;;;;2.50;1.13;;;21.00;54.10;;;;;;5092111;28;20182;-71
2024/01/28 03:49:17;;;;;;;1.40;1.13;;;21.00;54.10;;;;;;5091917;28;20272;-70
2024/01/28 03:51:42;;;;;;;1.63;1.07;;;21.00;54.20;;;;;;5073951;28;20531;-71
2024/01/28 03:54:08;;;;;;;1.40;1.20;;;21.00;54.10;;;;;;5091952;28;20259;-71
2024/01/28 03:56:34;;;;;;;1.40;1.30;;;21.00;54.10;;;;;;5091999;28;20185;-71
2024/01/28 03:59:00;;;;;;;1.70;1.10;;;21.00;54.20;;;;;;5091970;28;20193;-70
2024/01/28 04:01:34;;;;;;;1.97;1.57;;;21.00;54.20;;;;;;5091833;28;20443;-71
2024/01/28 04:04:00;;;;;;;1.40;1.30;;;21.00;54.20;;;;;;5091742;28;20176;-71
2024/01/28 04:06:26;;;;;;;1.43;1.20;;;21.00;54.20;;;;;;5091743;28;20407;-71
2024/01/28 04:08:55;;;;;;;1.67;1.27;;;21.00;54.20;;;;;;5073598;28;20181;-71
2024/01/28 04:11:27;;;;;;;1.40;1.10;;;21.00;54.20;;;;;;5091641;28;20250;-71
2024/01/28 04:13:54;;;;;;;1.90;1.50;;;21.00;54.20;;;;;;5091517;28;21031;-69
2024/01/28 04:16:23;;;;;;;2.03;1.37;;;21.00;54.20;;;;;;5073217;28;20870;-70
2024/01/28 04:18:49;;;;;;;2.20;1.10;;;21.00;54.20;;;;;;5091539;28;20517;-71
2024/01/28 04:21:15;;;;;;;1.60;1.50;;;21.00;54.20;;;;;;5091490;28;20424;-69
2024/01/28 04:23:41;;;;;;;1.47;1.20;;;21.00;54.20;;;;;;5091644;28;20438;-70
2024/01/28 04:26:07;;;;;;;1.80;1.57;;;21.00;54.20;;;;;;5091420;28;20781;-69
2024/01/28 04:28:32;;;;;;;1.63;1.53;;;21.00;54.20;;;;;;5091378;28;20174;-70
2024/01/28 04:30:58;;;;;;;1.90;1.40;;;21.00;54.20;;;;;;5091509;28;20424;-69
2024/01/28 04:33:24;;;;;;;2.20;1.30;;;21.00;54.20;;;;;;5091228;28;20181;-69
2024/01/28 04:35:50;;;;;;;1.63;1.47;;;21.00;54.20;;;;;;5091466;28;20541;-70
2024/01/28 04:38:16;;;;;;;1.40;1.30;;;21.00;54.20;;;;;;5091163;28;20822;-69
2024/01/28 04:40:42;;;;;;;1.20;1.00;;;21.00;54.20;;;;;;5091152;28;20420;-69
2024/01/28 04:43:07;;;;;;;1.40;1.20;;;21.00;54.20;;;;;;5091074;28;20196;-69
2024/01/28 04:45:33;;;;;;;2.27;1.40;;;21.00;54.20;;;;;;5090942;28;20193;-69
2024/01/28 04:47:58;;;;;;;1.30;1.10;;;21.00;54.20;;;;;;5091020;28;20216;-70
2024/01/28 04:50:24;;;;;;;1.47;1.23;;;21.00;54.20;;;;;;5090938;28;20239;-70
2024/01/28 04:52:51;;;;;;;1.63;1.23;;;21.00;54.20;;;;;;5090974;28;20257;-70
2024/01/28 04:55:16;;;;;;;1.33;1.17;;;20.90;54.10;;;;;;5090752;28;20756;-70
2024/01/28 04:57:42;;;;;;;1.30;1.13;;;20.90;54.10;;;;;;5090821;28;20476;-70
2024/01/28 05:00:11;;;;;;;1.83;1.37;;;20.90;54.10;;;;;;5090712;28;20661;-70
2024/01/28 05:02:38;;;;;;;1.37;1.27;;;20.90;54.10;;;;;;5090804;28;20165;-70
2024/01/28 05:05:04;;;;;;;1.60;1.20;;;20.90;54.10;;;;;;5090974;28;20443;-70
2024/01/28 05:07:29;;;;;;;1.43;1.17;;;20.90;54.10;;;;;;5090685;28;20462;-70
2024/01/28 05:09:55;;;;;;;1.40;1.10;;;20.90;54.10;;;;;;5090548;28;20463;-70
2024/01/28 05:12:21;;;;;;;1.73;1.27;;;20.90;54.10;;;;;;5090615;28;20177;-70
2024/01/28 05:14:47;;;;;;;1.60;1.50;;;20.90;54.10;;;;;;5090521;28;20227;-70
2024/01/28 05:17:13;;;;;;;1.47;1.10;;;21.00;54.20;;;;;;5090525;28;20770;-71
2024/01/28 05:19:38;;;;;;;1.50;1.10;;;20.90;54.10;;;;;;5090408;28;20663;-70
2024/01/28 05:22:04;;;;;;;1.80;1.60;;;20.90;54.10;;;;;;5090721;28;20177;-71
2024/01/28 05:24:30;;;;;;;1.60;1.20;;;20.90;54.10;;;;;;5090469;28;20174;-70
2024/01/28 05:26:56;;;;;;;1.60;1.23;;;20.90;54.20;;;;;;5090490;28;20174;-70
2024/01/28 05:29:21;;;;;;;1.40;1.17;;;20.90;54.10;;;;;;5072162;28;20888;-70
2024/01/28 05:31:48;;;;;;;1.50;1.13;;;20.90;54.10;;;;;;5072068;28;20180;-69
2024/01/28 05:34:14;;;;;;;1.60;1.50;;;20.90;54.70;;;;;;5090287;28;20282;-70
2024/01/28 05:36:40;;;;;;;1.33;1.10;;;20.90;54.10;;;;;;5090573;28;20940;-70
2024/01/28 05:39:06;;;;;;;1.10;1.00;;;20.90;54.10;;;;;;5072038;28;20408;-70
2024/01/28 05:41:32;;;;;;;1.33;1.20;;;20.90;54.10;;;;;;5090088;28;20181;-70
2024/01/28 05:43:58;;;;;;;1.33;1.00;;;20.90;54.10;;;;;;5090215;28;20891;-71
2024/01/28 05:46:23;;;;;;;1.67;1.40;;;20.90;54.20;;;;;;5090231;28;20613;-71
2024/01/28 05:48:49;;;;;;;2.10;1.53;;;20.90;54.10;;;;;;5090211;28;20176;-70
2024/01/28 05:51:15;;;;;;;1.67;1.27;;;20.90;54.10;;;;;;5090104;28;20201;-70
2024/01/28 05:53:40;;;;;;;1.30;1.20;;;20.90;54.20;;;;;;5090124;28;20217;-70
2024/01/28 05:56:06;;;;;;;1.50;1.30;;;20.90;54.20;;;;;;5090796;28;20628;-70
2024/01/28 05:58:32;;;;;;;1.50;1.00;;;20.90;54.20;;;;;;5094291;28;20641;-70
2024/01/28 06:01:02;;;;;;;1.50;1.33;;;20.90;54.10;;;;;;5094412;28;20463;-71
2024/01/28 06:03:28;;;;;;;1.40;1.20;;;20.90;54.20;;;;;;5094113;28;20458;-70
2024/01/28 06:05:53;;;;;;;1.83;1.37;;;20.90;54.70;;;;;;5094140;28;20412;-70
2024/01/28 06:08:19;;;;;;;1.70;1.30;;;20.90;54.20;;;;;;5094124;28;20177;-69
2024/01/28 06:10:44;;;;;;;1.10;0.90;;;20.90;54.20;;;;;;5093935;28;20196;-70
2024/01/28 06:13:10;;;;;;;1.30;1.10;;;20.90;54.20;;;;;;5094074;28;20197;-71
2024/01/28 06:15:36;;;;;;;2.00;1.30;;;20.90;54.20;;;;;;5093811;28;20209;-72
2024/01/28 06:18:02;;;;;;;1.97;1.30;;;20.90;54.20;;;;;;5093911;28;20170;-69
2024/01/28 06:20:27;;;;;;;2.57;1.20;;;20.90;54.10;;;;;;5093802;28;20269;-70
2024/01/28 06:22:53;;;;;;;1.77;1.20;;;20.90;54.10;;;;;;5093904;28;20977;-70
2024/01/28 06:25:19;;;;;;;1.43;1.23;;;20.90;54.10;;;;;;5093791;28;20547;-70
2024/01/28 06:27:45;;;;;;;1.60;1.27;;;20.90;54.10;;;;;;5093728;28;20569;-70
2024/01/28 06:30:11;;;;;;;1.20;1.07;;;20.90;54.10;;;;;;5093748;28;20193;-70
2024/01/28 06:32:37;;;;;;;1.20;0.93;;;20.90;54.10;;;;;;5093865;28;20434;-70
2024/01/28 06:35:03;;;;;;;1.20;0.90;;;20.90;54.10;;;;;;5093406;28;20451;-70
2024/01/28 06:37:29;;;;;;;1.83;1.33;;;20.90;54.00;;;;;;5093542;28;20166;-70
2024/01/28 06:39:55;;;;;;;1.53;1.43;;;20.90;54.10;;;;;;5093358;28;20757;-70
2024/01/28 06:42:20;;;;;;;1.33;1.10;;;21.00;54.10;;;;;;5093422;28;20320;-70
2024/01/28 06:44:47;;;;;;;1.30;1.00;;;21.00;54.10;;;;;;5093429;28;20173;-70
2024/01/28 06:47:13;;;;;;;1.57;1.47;;;21.00;54.10;;;;;;5093393;28;20177;-71
2024/01/28 06:49:38;;;;;;;2.00;1.40;;;21.00;54.10;;;;;;5093135;28;20806;-70
2024/01/28 06:52:04;;;;;;;1.40;1.23;;;21.00;54.10;;;;;;5093255;28;20178;-70
2024/01/28 06:54:30;;;;;;;1.83;1.17;;;21.00;54.10;;;;;;5093077;28;20193;-71
2024/01/28 06:56:56;;;;;;;1.13;0.97;;;21.00;54.10;;;;;;5093311;28;20469;-71
2024/01/28 06:59:23;;;;;;;1.53;1.17;;;21.00;54.10;;;;;;5093001;28;20502;-71
2024/01/28 07:01:48;;;;;;;1.57;1.23;;;21.10;54.10;;;;;;5093081;28;20584;-71
2024/01/28 07:04:14;;;;;;;1.30;1.03;;;21.10;54.10;;;;;;5092971;28;20464;-70
2024/01/28 07:06:40;;;;;;;1.60;1.33;;;21.10;54.10;;;;;;5074632;28;20231;-70
2024/01/28 07:09:07;;;;;;;1.30;1.10;;;21.10;54.10;;;;;;5091450;28;20207;-70
2024/01/28 07:11:33;;;;;;;1.63;1.20;;;21.10;54.00;;;;;;5093035;28;21040;-69
2024/01/28 07:13:59;;;;;;;2.17;1.20;;;21.10;54.00;;;;;;5092850;28;20521;-70
2024/01/28 07:16:24;;;;;;;1.80;1.23;;;21.10;54.00;;;;;;5092622;28;20268;-71
2024/01/28 07:18:52;;;;;;;2.00;1.43;;;21.10;54.50;;;;;;5074256;28;20550;-70
2024/01/28 07:21:17;;;;;;;1.33;1.00;;;21.20;54.00;;;;;;5092522;28;20200;-70
2024/01/28 07:23:43;;;;;;;1.57;1.30;;;21.20;54.00;;;;;;5074337;28;20420;-70
2024/01/28 07:26:09;;;;;;;1.50;1.40;;;21.20;54.00;;;;;;5079417;28;20217;-69
2024/01/28 07:28:35;;;;;;;1.40;1.10;;;21.20;54.00;;;;;;5072355;28;20220;-70
2024/01/28 07:31:01;;;;;;;1.20;1.10;;;21.20;54.00;;;;;;5072419;28;20421;-70
2024/01/28 07:33:27;;;;;;;1.40;1.20;;;21.20;54.00;;;;;;5072118;28;20454;-69
2024/01/28 07:35:53;;;;;;;1.80;1.30;;;21.20;54.00;;;;;;5072191;28;20175;-68
2024/01/28 07:38:18;;;;;;;1.30;1.20;;;21.20;54.00;;;;;;5072097;28;20258;-68
2024/01/28 07:40:44;;;;;;;2.10;1.90;;;21.30;54.00;;;;;;5071988;28;20477;-69
2024/01/28 07:43:09;;;;;;;1.80;1.43;;;21.30;54.00;;;;;;5071972;28;20170;-70
2024/01/28 07:45:37;;;;;;;1.20;1.10;;;21.30;54.00;;;;;;5071983;28;20251;-69
2024/01/28 07:48:03;;;;;;;1.20;1.10;;;21.30;54.00;;;;;;5071701;28;20167;-69
2024/01/28 07:50:29;;;;;;;3.60;2.57;;;21.30;54.00;;;;;;5071749;28;20436;-69
2024/01/28 07:52:55;;;;;;;3.93;1.60;;;21.30;54.00;;;;;;5072030;28;20465;-70
2024/01/28 07:55:21;;;;;;;1.67;1.37;;;21.30;54.00;;;;;;5053686;28;20249;-69
2024/01/28 07:57:46;;;;;;;2.17;1.80;;;21.30;54.00;;;;;;5071676;28;20947;-70
2024/01/28 08:00:12;;;;;;;1.93;1.83;;;21.30;54.00;;;;;;5071621;28;20193;-69
2024/01/28 08:02:38;;;;;;;2.63;1.63;;;21.30;54.00;;;;;;5071629;28;20239;-70
2024/01/28 08:05:04;;;;;;;2.30;1.50;;;21.30;53.90;;;;;;5071505;28;20905;-70
2024/01/28 08:07:30;;;;;;;1.97;1.50;;;21.30;53.90;;;;;;5071360;28;20756;-69
2024/01/28 08:09:55;;;;;;;3.10;1.50;;;21.30;53.90;;;;;;5071408;28;20198;-70
2024/01/28 08:12:21;;;;;;;2.50;1.53;;;21.30;53.90;;;;;;5071414;28;20178;-69
2024/01/28 08:14:46;;;;;;;2.87;1.70;;;21.30;53.90;;;;;;5071557;28;20202;-70
2024/01/28 08:17:12;;;;;;;4.20;2.40;;;21.30;53.90;;;;;;5071296;28;20186;-70
2024/01/28 08:19:38;;;;;;;2.80;2.00;;;21.30;53.90;;;;;;5070745;28;20846;-69
2024/01/28 08:22:07;;;;;;;1.87;1.63;;;21.30;53.90;;;;;;5071275;28;20265;-74
2024/01/28 08:24:33;;;;;;;3.40;2.20;;;21.30;53.90;;;;;;5071213;28;20181;-69
2024/01/28 08:26:58;;;;;;;2.20;1.77;;;21.30;53.80;;;;;;5071054;28;20413;-71
2024/01/28 08:29:25;;;;;;;2.60;1.73;;;21.30;53.80;;;;;;5070987;28;20728;-69
2024/01/28 08:31:51;;;;;;;2.23;1.63;;;21.30;53.80;;;;;;5070983;28;20250;-70
2024/01/28 08:34:16;;;;;;;2.03;1.40;;;21.30;53.80;;;;;;5070900;28;20542;-70
2024/01/28 08:36:42;;;;;;;1.43;1.30;;;21.30;53.80;;;;;;5070893;28;20405;-70
2024/01/28 08:39:09;;;;;;;1.77;1.63;;;21.30;53.80;;;;;;5070680;28;20570;-70
2024/01/28 08:41:36;;;;;;;2.53;2.00;;;21.40;54.00;;;;;;5053136;28;20198;-70
2024/01/28 08:44:05;;;;;;;2.30;1.57;;;21.40;53.90;;;;;;5070866;28;20440;-68
2024/01/28 08:46:30;;;;;;;2.80;1.70;;;21.40;53.90;;;;;;5070754;28;20789;-69
2024/01/28 08:48:56;;;;;;;2.80;1.93;;;21.40;53.90;;;;;;5070668;28;20408;-69
2024/01/28 08:51:21;;;;;;;1.80;1.57;;;21.40;53.90;;;;;;5070581;28;20197;-70
2024/01/28 08:53:47;;;;;;;1.90;1.70;;;21.40;53.90;;;;;;5052437;28;20209;-70
2024/01/28 08:56:13;;;;;;;2.90;1.80;;;21.40;53.90;;;;;;5070577;28;20183;-70
2024/01/28 08:58:38;;;;;;;1.73;1.60;;;21.40;53.90;;;;;;5070471;28;20170;-71
2024/01/28 09:01:05;;;;;;;2.80;1.60;;;21.40;53.90;;;;;;5070721;28;20239;-70
2024/01/28 09:03:30;;;;;;;2.03;1.83;;;21.40;53.90;;;;;;5070522;28;20205;-69
2024/01/28 09:05:56;;;;;;;2.07;1.87;;;21.40;53.90;;;;;;5070619;28;20436;-69
2024/01/28 09:08:22;;;;;;;1.80;1.43;;;21.40;53.90;;;;;;5070373;28;20175;-67
2024/01/28 09:10:47;;;;;;;3.30;1.90;;;21.40;53.90;;;;;;5070359;28;20190;-70
2024/01/28 09:13:13;;;;;;;2.87;2.20;;;21.40;53.90;;;;;;5070283;28;20174;-69
2024/01/28 09:15:38;;;;;;;1.83;1.63;;;21.40;53.90;;;;;;5070329;28;20247;-69
2024/01/28 09:18:04;;;;;;;1.40;1.30;;;21.40;53.90;;;;;;5070284;28;20185;-69
2024/01/28 09:20:30;;;;;;;2.63;1.60;;;21.40;53.90;;;;;;5051868;28;20248;-69
2024/01/28 09:22:56;;;;;;;2.83;1.63;;;21.40;54.00;;;;;;5070228;28;20178;-69
2024/01/28 09:25:21;;;;;;;2.10;1.90;;;21.40;54.00;;;;;;5070311;28;20178;-67
2024/01/28 09:27:48;;;;;;;2.03;1.70;;;21.40;54.00;;;;;;5074959;28;20166;-67
2024/01/28 09:30:14;;;;;;;4.43;2.10;;;21.40;54.00;;;;;;5078093;28;20606;-69
2024/01/28 09:32:40;;;;;;;1.77;1.50;;;21.40;54.00;;;;;;5082538;28;20406;-69
2024/01/28 09:35:06;;;;;;;1.90;1.70;;;21.40;54.00;;;;;;5090152;28;20443;-69
2024/01/28 09:37:31;;;;;;;2.10;1.80;;;21.40;54.00;;;;;;5090069;28;20202;-68
2024/01/28 09:39:57;;;;;;;2.00;1.60;;;21.40;54.00;;;;;;5074603;28;20194;-69
2024/01/28 09:43:02;;;;;;;2.17;1.80;;;21.40;54.00;;;;;;5070017;28;20605;-69
2024/01/28 09:45:29;;;;;;;1.70;1.50;;;21.40;53.90;;;;;;5069944;28;20177;-69
2024/01/28 09:47:55;;;;;;;2.13;1.80;;;21.40;54.00;;;;;;5078823;28;21788;-69
2024/01/28 09:50:21;;;;;;;1.93;1.67;;;21.40;53.90;;;;;;5080330;28;20440;-68
2024/01/28 09:52:47;;;;;;;2.07;1.67;;;21.40;54.00;;;;;;5079948;28;20495;-67
2024/01/28 09:55:13;;;;;;;3.70;1.73;;;21.40;53.90;;;;;;5079804;28;20555;-67
2024/01/28 09:57:38;;;;;;;1.97;1.77;;;21.50;54.00;;;;;;5069730;28;20224;-69
2024/01/28 10:00:07;;;;;;;2.00;1.53;;;21.40;53.90;;;;;;5069870;28;20204;-69
2024/01/28 10:02:35;;;;;;;3.50;1.80;;;21.50;54.00;;;;;;5072672;28;20169;-68
2024/01/28 10:05:01;;;;;;;1.70;1.60;;;21.50;54.00;;;;;;5080895;28;20415;-67
2024/01/28 10:07:27;;;;;;;2.30;1.80;;;21.50;54.00;;;;;;5060531;28;20420;-68
2024/01/28 10:09:53;;;;;;;1.93;1.73;;;21.50;54.00;;;;;;5069773;28;20987;-68
2024/01/28 10:12:18;;;;;;;2.90;1.80;;;21.50;54.00;;;;;;5069700;28;20186;-68
2024/01/28 10:14:51;;;;;;;2.00;1.43;;;21.50;54.10;;;;;;5069345;28;20202;-68
2024/01/28 10:17:17;;;;;;;2.40;1.70;;;21.50;54.10;;;;;;5069565;28;20182;-68
2024/01/28 10:19:42;;;;;;;1.90;1.50;;;21.50;54.10;;;;;;5069625;28;20436;-66
2024/01/28 10:22:08;;;;;;;1.83;1.50;;;21.50;54.10;;;;;;5069575;28;20166;-66
2024/01/28 10:24:34;;;;;;;3.03;1.80;;;21.50;54.10;;;;;;5069567;28;20261;-68
2024/01/28 10:27:01;;;;;;;1.90;1.70;;;21.50;54.20;;;;;;5069528;28;20234;-68
2024/01/28 10:29:28;;;;;;;1.70;1.37;;;21.50;54.20;;;;;;5069420;28;20452;-68
2024/01/28 10:31:59;;;;;;;2.17;1.87;;;21.50;54.20;;;;;;5069297;28;20174;-68
2024/01/28 10:34:24;;;;;;;4.90;1.87;;;21.50;54.20;;;;;;5075553;28;20464;-68
2024/01/28 10:36:52;;;;;;;2.10;1.60;;;21.50;54.20;;;;;;5073891;28;20911;-68
2024/01/28 10:39:19;;;;;;;1.90;1.80;;;21.50;54.20;;;;;;5079042;28;20181;-69
2024/01/28 10:41:51;;;;;;;2.67;2.20;;;21.40;54.10;;;;;;5067663;28;20514;-68
2024/01/28 10:44:17;;;;;;;1.50;1.40;;;21.40;54.70;;;;;;5078478;28;20441;-68
2024/01/28 10:46:44;;;;;;;1.43;1.30;;;21.40;54.10;;;;;;5084025;28;20416;-67
2024/01/28 10:49:11;;;;;;;3.07;1.60;;;21.40;54.10;;;;;;5086094;28;20457;-68
2024/01/28 10:51:39;;;;;;;1.60;1.50;;;21.40;54.10;;;;;;5081731;28;20442;-68
2024/01/28 10:54:07;;;;;;;2.07;1.27;;;21.40;54.10;;;;;;5076559;28;20463;-69
2024/01/28 10:56:33;;;;;;;1.67;1.50;;;21.40;54.10;;;;;;5085552;28;20797;-68
2024/01/28 10:58:59;;;;;;;1.63;1.53;;;21.40;54.10;;;;;;5084187;28;20419;-69
2024/01/28 11:01:27;;;;;;;1.83;1.50;;;21.40;54.10;;;;;;5077736;28;20440;-68
2024/01/28 11:03:55;;;;;;;1.63;1.43;;;21.40;54.10;;;;;;5091560;28;20822;-69
2024/01/28 11:06:20;;;;;;;1.83;1.33;;;21.40;54.10;;;;;;5086741;28;20473;-69
2024/01/28 11:08:46;;;;;;;1.87;1.77;;;21.40;54.20;;;;;;5082397;28;20427;-69
2024/01/28 11:11:12;;;;;;;2.13;1.60;;;21.40;54.20;;;;;;5079456;28;20209;-67
2024/01/28 11:13:38;;;;;;;2.37;1.77;;;21.40;54.70;;;;;;5089083;28;20242;-69
2024/01/28 11:16:10;;;;;;;2.00;1.80;;;21.40;54.20;;;;;;5073881;28;20447;-70
2024/01/28 11:18:36;;;;;;;1.83;1.47;;;21.40;54.20;;;;;;5065790;28;21067;-68
2024/01/28 11:21:18;;;;;;;2.00;1.80;;;21.40;54.20;;;;;;5077071;28;20471;-68
2024/01/28 11:23:44;;;;;;;3.07;1.73;;;21.40;54.20;;;;;;5081880;28;20178;-68
2024/01/28 11:26:17;;;;;;;1.90;1.70;;;21.40;54.20;;;;;;5082996;28;20418;-68
2024/01/28 11:28:47;;;;;;;1.70;1.43;;;21.40;54.20;;;;;;5089465;28;20174;-69
2024/01/28 11:31:32;;;;;;;2.17;1.40;;;21.40;54.20;;;;;;5091593;28;20837;-69
2024/01/28 11:34:15;;;;;;;1.93;1.43;;;21.40;54.20;;;;;;5078983;28;20538;-68
2024/01/28 11:36:45;;;;;;;1.93;1.73;;;21.40;54.20;;;;;;5079501;28;20919;-68
2024/01/28 11:39:13;;;;;;;1.70;1.50;;;21.40;54.20;;;;;;5088581;28;20505;-68
2024/01/28 11:41:41;;;;;;;1.93;1.40;;;21.40;54.20;;;;;;5072524;28;21143;-68
2024/01/28 11:44:08;;;;;;;1.73;1.63;;;21.40;54.20;;;;;;5090341;28;20821;-69
2024/01/28 11:46:38;;;;;;;1.90;1.70;;;21.40;54.30;;;;;;5079964;28;20507;-68
2024/01/28 11:49:05;;;;;;;1.50;1.40;;;21.40;54.20;;;;;;5082648;28;20494;-68
2024/01/28 11:51:31;;;;;;;2.60;1.40;;;21.40;54.20;;;;;;5082949;28;20467;-67
2024/01/28 11:54:00;;;;;;;1.90;1.70;;;21.40;54.20;;;;;;5080308;28;20448;-68
2024/01/28 11:56:28;;;;;;;2.90;1.70;;;21.40;54.20;;;;;;5084734;28;20413;-67
2024/01/28 11:58:55;;;;;;;3.00;1.90;;;21.40;54.20;;;;;;5082793;28;20787;-70
2024/01/28 12:01:20;;;;;;;2.10;1.50;;;21.40;54.20;;;;;;5091873;28;20431;-67
2024/01/28 12:03:46;;;;;;;1.80;1.60;;;21.40;54.20;;;;;;5091905;28;20425;-68
2024/01/28 12:06:12;;;;;;;2.17;1.50;;;21.40;54.20;;;;;;5091939;28;20993;-68
2024/01/28 12:08:41;;;;;;;1.60;1.40;;;21.40;54.20;;;;;;5092104;28;20181;-68
2024/01/28 12:11:07;;;;;;;3.60;2.40;;;21.40;54.10;;;;;;5091966;28;20445;-68
2024/01/28 12:13:33;;;;;;;5.07;3.73;;;21.40;54.00;;;;;;5091751;28;20403;-69
2024/01/28 12:15:59;;;;;;;7.40;3.97;;;21.40;53.60;;;;;;5091762;28;20193;-68
2024/01/28 12:18:38;;;;;;;8.23;5.07;;;21.40;53.30;;;;;;5091782;28;20170;-66
2024/01/28 12:21:05;;;;;;;4.90;4.20;;;21.40;53.20;;;;;;5091600;28;20467;-69
2024/01/28 12:23:31;;;;;;;6.20;3.77;;;21.30;53.30;;;;;;5073282;28;20418;-68
2024/01/28 12:25:57;;;;;;;6.77;4.33;;;21.30;53.40;;;;;;5091576;28;20414;-68
2024/01/28 12:28:23;;;;;;;6.80;2.50;;;21.30;53.50;;;;;;5091525;28;20424;-68
2024/01/28 12:30:49;;;;;;;3.43;2.47;;;21.30;53.50;;;;;;5091611;28;20910;-68
2024/01/28 12:33:18;;;;;;;3.67;2.70;;;21.30;53.60;;;;;;5091350;28;20219;-68
2024/01/28 12:35:44;;;;;;;4.67;3.00;;;21.30;53.60;;;;;;5091254;28;20459;-69
2024/01/28 12:38:09;;;;;;;3.00;2.73;;;21.30;53.60;;;;;;5091344;28;20415;-67
2024/01/28 12:40:35;;;;;;;3.30;2.57;;;21.30;53.70;;;;;;5091396;28;20216;-68
2024/01/28 12:43:01;;;;;;;4.97;2.80;;;21.30;53.70;;;;;;5091227;28;20203;-68